Airport ID:6TE6
Update Time (UTC):05/07/2020 06:58
Wind Speed (Knots):8
Wind Direction (Magnetic):360
Temperature (°C):23
Dew Point (°C):20
Humidity (%):78
Altimeter (inHg):29.95
Density Altitude (Feet):3500
Visibility:10+
Clouds (Hundreds of feet):FEW036 SCT110
Present Weather:
METAR:METAR 6TE6 050655Z AUTO 01008KT 10SM FEW035 SCT110 23/20 A2995 RMK A01

The data displayed is for advisory purposes only and is not to be used for flight planning or operations.